Hauptseite
METAR-TAF:

METAR-TAF

Flughäfen :

Flughafen Friedrichshafen

Friedrichshafen, Deutschland

Breite: 47-40N, Länge: 009-31E, Höhe: 416 m

Beobachtung

Neuester Wetterbericht von vor 2 Stunden und 7 Minuten, um 23:20 UTC
Wind 2 kt aus Nordost
Temperatur 1°C
Luftfeuchtigkeit 86%
Luftdruck 1013 hPa
Sichtweite 10 km oder mehr

METAR: EDNY 022320Z AUTO 05002KT 9999 // FEW075/// BKN087/// 01/M01 Q1013

Zeit: 03:27 (01:27 UTC)

Prognose

Neuester Wetterbericht von vor 2 Stunden und 27 Minuten, um 23:00 UTC
Gültige Prognose vom 03 um 00 UTC bis 03 um 24 UTC
Wind 2 kt aus unterschiedlichen Richtungen
Sichtweite 10 km oder mehr
Aufgelockert bewölkt in der Höhe von 6000 ft
Zeitweise
vom 03 um 10 UTC bis 03 um 17 UTC
Wind 5 kt aus West/Südwest

TAF: EDNY 022300Z 0300/0324 VRB02KT 9999 SCT060 TEMPO 0310/0317 24005KT

Wetterbeobachtungen und Prognosen von mehr als 4000 Flughäfen (METAR und TAF Bericht).

Die verfügbaren Stationen werden durch gelbe und rote Markierungen auf der Karte dargestellt.

Führen Sie die Maus auf sie, um den Namen der Station zu sehen.

Darauf klicken, um die Beobachtung von Wetterbeobachtungen und Prognosen zu sehen.

Um die Karte zu ändern : klicken Sie auf den grünen Tasten mit einem schwarzen Kreuz Zum Vergrößern, auf den grünen Button mit einem Gedankenstrich zu verkleinern, oder auf die grünen Pfeile für benachbarte Karten.


METAR-TAF: